Time;durP1;ratioP1;P1;durP2;ratioP2;P2;SDS_P1;SDS_P2;PMS_P1;PMS_P2;Temp;Humidity;BMP_temperature;BMP_pressure;BME280_temperature;BME280_humidity;BME280_pressure;Samples;Min_cycle;Max_cycle;Signal;HPM_P1;HPM_P2
2021/12/13 00:01:19;;;;;;;16.15;12.27;;;10.20;99.90;;;;;;5032918;28;20429;-75
2021/12/13 00:04:07;;;;;;;20.13;12.18;;;10.10;99.90;;;;;;5025752;28;20395;-75
2021/12/13 00:06:38;;;;;;;20.85;12.98;;;10.20;99.90;;;;;;5013806;28;20813;-74
2021/12/13 00:09:14;;;;;;;16.08;11.65;;;10.10;99.90;;;;;;5013205;28;20395;-75
2021/12/13 00:11:47;;;;;;;22.10;12.55;;;10.00;99.90;;;;;;5013421;28;20752;-73
2021/12/13 00:14:21;;;;;;;18.92;11.77;;;10.10;99.90;;;;;;5013341;28;20389;-73
2021/12/13 00:17:00;;;;;;;16.73;11.82;;;10.20;99.90;;;;;;5028758;28;20476;-73
2021/12/13 00:19:34;;;;;;;19.33;11.75;;;10.20;99.90;;;;;;5029584;28;20804;-73
2021/12/13 00:22:04;;;;;;;16.05;11.57;;;10.10;99.90;;;;;;5033318;28;20421;-74
2021/12/13 00:24:33;;;;;;;14.77;11.20;;;10.20;99.90;;;;;;5015824;28;20428;-73
2021/12/13 00:27:12;;;;;;;15.27;10.75;;;10.20;99.90;;;;;;5013023;28;20384;-73
2021/12/13 00:30:29;;;;;;;18.92;11.73;;;10.30;99.90;;;;;;5022493;28;20414;-72
2021/12/13 00:33:38;;;;;;;16.83;11.95;;;10.10;99.90;;;;;;4986643;28;20515;-73
2021/12/13 00:36:13;;;;;;;17.33;11.48;;;10.20;99.90;;;;;;4994997;28;20404;-74
2021/12/13 00:38:45;;;;;;;14.70;10.57;;;10.20;99.90;;;;;;5013457;28;20388;-74
2021/12/13 00:41:19;;;;;;;16.33;11.23;;;10.20;99.90;;;;;;5013280;28;20475;-74
2021/12/13 00:44:22;;;;;;;15.63;10.88;;;10.20;99.90;;;;;;5024514;28;20399;-73
2021/12/13 00:46:52;;;;;;;13.23;9.63;;;10.20;99.90;;;;;;5021105;28;20457;-73
2021/12/13 00:49:21;;;;;;;14.75;9.90;;;10.10;99.90;;;;;;5032562;28;20393;-73
2021/12/13 00:51:51;;;;;;;14.68;9.82;;;10.10;99.90;;;;;;5032796;28;20415;-73
2021/12/13 00:54:25;;;;;;;12.05;9.05;;;10.20;99.90;;;;;;5025772;28;20946;-74
2021/12/13 00:57:04;;;;;;;16.88;11.10;;;10.20;99.90;;;;;;5033624;28;20387;-73
2021/12/13 00:59:40;;;;;;;14.43;10.20;;;10.10;99.90;;;;;;5032994;28;20402;-74
2021/12/13 01:02:27;;;;;;;13.88;10.18;;;10.20;99.90;;;;;;5028700;28;20395;-73
2021/12/13 01:05:24;;;;;;;16.13;10.77;;;10.10;99.90;;;;;;5035134;28;20749;-74
2021/12/13 01:08:08;;;;;;;14.30;11.07;;;10.00;99.90;;;;;;5023078;28;20470;-72
2021/12/13 01:14:05;;;;;;;15.10;10.30;;;9.80;99.90;;;;;;5039146;28;20859;-73
2021/12/13 01:17:01;;;;;;;15.95;10.13;;;9.90;99.90;;;;;;5026823;28;20485;-72
2021/12/13 01:19:51;;;;;;;12.98;8.75;;;9.90;99.90;;;;;;5027749;28;20389;-73
2021/12/13 01:22:53;;;;;;;10.55;8.30;;;10.00;99.90;;;;;;5026719;28;20387;-73
2021/12/13 01:25:41;;;;;;;11.30;8.30;;;10.10;99.90;;;;;;5017618;28;20920;-74
2021/12/13 01:28:13;;;;;;;11.90;8.30;;;10.00;99.90;;;;;;5039708;28;20398;-74
2021/12/13 01:30:50;;;;;;;12.93;8.37;;;10.00;99.90;;;;;;5038054;28;20414;-72
2021/12/13 01:33:17;;;;;;;13.48;8.38;;;9.90;99.90;;;;;;5039361;28;20462;-72
2021/12/13 01:35:48;;;;;;;12.20;8.55;;;9.90;99.90;;;;;;5040332;28;20379;-73
2021/12/13 01:38:21;;;;;;;14.57;9.50;;;10.00;99.90;;;;;;5045850;28;20453;-72
2021/12/13 01:40:53;;;;;;;14.48;8.60;;;9.90;99.90;;;;;;5042469;28;20382;-73
2021/12/13 01:43:27;;;;;;;15.53;7.90;;;9.80;99.90;;;;;;5044372;28;20402;-73
2021/12/13 01:45:54;;;;;;;14.23;8.70;;;9.80;99.90;;;;;;5037888;28;20412;-73
2021/12/13 01:48:31;;;;;;;9.85;7.97;;;9.80;99.90;;;;;;5047965;28;20405;-73
2021/12/13 01:51:05;;;;;;;12.18;8.23;;;9.70;99.90;;;;;;5028014;28;20435;-73
2021/12/13 01:53:48;;;;;;;12.27;8.60;;;9.70;99.90;;;;;;5030967;28;20481;-72
2021/12/13 01:59:06;;;;;;;13.40;8.13;;;9.80;99.90;;;;;;5029969;28;20391;-72
2021/12/13 02:01:32;;;;;;;10.63;7.45;;;9.80;99.90;;;;;;5033725;28;20479;-73
2021/12/13 02:04:03;;;;;;;13.50;8.00;;;9.80;99.90;;;;;;5015145;28;20414;-73
2021/12/13 02:06:45;;;;;;;10.45;7.97;;;9.80;99.90;;;;;;5032176;28;20491;-73
2021/12/13 02:09:20;;;;;;;8.85;6.97;;;9.80;99.90;;;;;;5021389;28;20882;-74
2021/12/13 02:11:51;;;;;;;11.02;7.47;;;9.90;99.90;;;;;;5022389;28;20415;-73
2021/12/13 02:14:19;;;;;;;10.20;7.35;;;9.90;99.90;;;;;;5028895;28;20404;-73
2021/12/13 02:17:15;;;;;;;11.90;8.32;;;10.00;99.90;;;;;;5034714;28;20397;-73
2021/12/13 02:19:57;;;;;;;14.30;8.43;;;9.90;99.90;;;;;;5035772;28;20479;-73
2021/12/13 02:22:31;;;;;;;11.57;8.10;;;9.90;99.90;;;;;;5026685;28;20469;-73
2021/12/13 02:25:20;;;;;;;10.18;7.50;;;9.80;99.70;;;;;;5033823;28;20434;-73
2021/12/13 02:28:11;;;;;;;14.05;8.73;;;9.80;99.90;;;;;;5025346;28;20391;-73
2021/12/13 02:30:40;;;;;;;14.40;9.32;;;9.70;99.90;;;;;;5015462;28;20413;-72
2021/12/13 02:33:09;;;;;;;13.10;9.50;;;9.60;99.90;;;;;;5018066;28;20399;-72
2021/12/13 02:35:42;;;;;;;15.90;11.73;;;9.50;99.90;;;;;;5033254;28;20504;-73
2021/12/13 02:38:12;;;;;;;14.15;10.18;;;9.50;99.90;;;;;;5015043;28;20455;-73
2021/12/13 02:40:38;;;;;;;12.68;10.18;;;9.60;99.90;;;;;;5029214;28;20423;-74
2021/12/13 02:43:06;;;;;;;18.10;12.57;;;9.70;99.90;;;;;;5034772;28;20803;-73
2021/12/13 02:45:42;;;;;;;16.40;11.57;;;9.60;99.90;;;;;;5032691;28;20383;-73
2021/12/13 02:48:17;;;;;;;17.42;11.27;;;9.60;99.90;;;;;;5022237;28;20392;-73
2021/12/13 02:50:46;;;;;;;13.75;8.90;;;9.50;99.90;;;;;;4996916;28;20474;-73
2021/12/13 02:53:14;;;;;;;12.60;8.70;;;9.40;99.90;;;;;;5029044;28;20399;-73
2021/12/13 02:55:40;;;;;;;13.43;9.27;;;9.40;99.90;;;;;;5032300;28;20407;-71
2021/12/13 02:58:10;;;;;;;11.75;8.70;;;9.40;99.90;;;;;;5022015;28;20389;-74
2021/12/13 03:00:43;;;;;;;15.20;9.57;;;9.30;99.90;;;;;;5032119;28;20807;-73
2021/12/13 03:03:14;;;;;;;13.23;8.70;;;9.40;99.90;;;;;;5033901;28;20391;-73
2021/12/13 03:05:43;;;;;;;16.63;8.82;;;9.40;99.90;;;;;;5031291;28;20425;-73
2021/12/13 03:08:18;;;;;;;10.57;7.20;;;9.40;99.90;;;;;;5030860;28;20752;-74
2021/12/13 03:10:49;;;;;;;15.90;8.23;;;9.40;99.90;;;;;;5037985;28;20470;-73
2021/12/13 03:13:17;;;;;;;15.77;9.10;;;9.30;99.90;;;;;;5032788;28;20399;-73
2021/12/13 03:15:47;;;;;;;12.07;8.57;;;9.30;99.90;;;;;;5032111;28;20396;-72
2021/12/13 03:18:20;;;;;;;11.60;8.40;;;9.20;99.90;;;;;;5024304;28;20398;-72
2021/12/13 03:21:00;;;;;;;12.68;8.23;;;9.30;99.90;;;;;;5033827;28;20727;-73
2021/12/13 03:24:17;;;;;;;13.00;7.68;;;9.40;99.90;;;;;;5043541;28;20405;-72
2021/12/13 03:26:57;;;;;;;14.90;8.80;;;9.40;99.90;;;;;;5004556;28;20498;-72
2021/12/13 03:29:29;;;;;;;10.82;8.10;;;9.30;99.90;;;;;;5024784;28;20387;-72
2021/12/13 03:31:59;;;;;;;10.75;7.90;;;9.30;99.90;;;;;;5023553;28;20405;-73
2021/12/13 03:34:30;;;;;;;13.57;8.23;;;9.30;99.90;;;;;;5032680;28;20381;-73
2021/12/13 03:37:16;;;;;;;12.90;9.07;;;9.40;99.90;;;;;;5043213;28;20410;-73
2021/12/13 03:39:46;;;;;;;11.95;9.05;;;9.30;99.90;;;;;;5030572;28;20379;-73
2021/12/13 03:42:17;;;;;;;12.50;9.70;;;9.30;99.90;;;;;;5012841;28;20408;-73
2021/12/13 03:44:47;;;;;;;13.90;9.20;;;9.30;99.90;;;;;;5012641;28;20754;-73
2021/12/13 03:47:36;;;;;;;10.05;8.43;;;9.30;99.90;;;;;;5027606;28;20399;-73
2021/12/13 03:50:09;;;;;;;10.75;8.85;;;9.30;99.90;;;;;;5024843;28;20400;-73
2021/12/13 03:52:40;;;;;;;9.83;7.87;;;9.30;99.90;;;;;;5022599;28;20373;-73
2021/12/13 03:55:08;;;;;;;15.07;9.37;;;9.30;99.90;;;;;;5024161;28;20481;-72
2021/12/13 03:57:38;;;;;;;18.50;11.13;;;9.30;99.90;;;;;;5030807;28;20931;-72
2021/12/13 04:00:05;;;;;;;16.95;11.73;;;9.20;99.90;;;;;;5032151;28;20399;-73
2021/12/13 04:02:36;;;;;;;21.98;13.02;;;9.10;99.90;;;;;;5039542;28;20429;-72
2021/12/13 04:05:10;;;;;;;20.23;12.88;;;9.20;99.90;;;;;;5037573;28;20459;-72
2021/12/13 04:07:44;;;;;;;19.20;12.55;;;9.20;99.90;;;;;;5032005;28;20399;-73
2021/12/13 04:10:22;;;;;;;23.63;13.35;;;9.30;99.90;;;;;;5025846;28;20392;-72
2021/12/13 04:12:53;;;;;;;22.48;12.63;;;9.20;99.90;;;;;;5011734;28;20431;-72
2021/12/13 04:15:25;;;;;;;21.02;12.98;;;9.30;99.90;;;;;;5017154;28;20436;-72
2021/12/13 04:18:02;;;;;;;21.90;13.87;;;9.30;99.90;;;;;;5031621;28;20849;-74
2021/12/13 04:20:34;;;;;;;21.03;12.73;;;9.20;99.90;;;;;;5023013;28;20389;-72
2021/12/13 04:23:12;;;;;;;22.20;14.13;;;9.10;99.90;;;;;;5016165;28;20383;-74
2021/12/13 04:25:41;;;;;;;20.00;13.07;;;9.20;99.90;;;;;;5029138;28;20901;-73
2021/12/13 04:28:12;;;;;;;25.15;14.50;;;9.20;99.90;;;;;;5011719;28;20392;-72
2021/12/13 04:30:53;;;;;;;20.67;13.40;;;9.10;99.90;;;;;;5010838;28;20409;-72
2021/12/13 04:33:35;;;;;;;21.27;13.90;;;9.10;99.90;;;;;;5036091;28;20410;-72
2021/12/13 04:36:24;;;;;;;23.38;14.02;;;9.10;99.90;;;;;;5031962;28;20406;-72
2021/12/13 04:39:00;;;;;;;26.95;14.35;;;9.10;99.90;;;;;;5030724;28;20430;-73
2021/12/13 04:41:37;;;;;;;20.10;13.50;;;9.10;99.90;;;;;;5031453;28;20485;-73
2021/12/13 04:44:09;;;;;;;18.70;12.77;;;9.10;99.90;;;;;;5031070;28;20427;-72
2021/12/13 04:46:38;;;;;;;22.85;13.52;;;9.10;99.90;;;;;;5030376;28;20852;-72
2021/12/13 04:49:11;;;;;;;20.60;13.20;;;9.10;99.90;;;;;;5031864;28;20536;-73
2021/12/13 04:51:47;;;;;;;20.40;13.70;;;9.10;99.90;;;;;;5032697;28;20430;-73
2021/12/13 04:54:15;;;;;;;23.50;13.33;;;9.10;99.90;;;;;;5033032;28;20421;-74
2021/12/13 04:56:42;;;;;;;23.85;14.60;;;9.00;99.90;;;;;;5021744;28;20393;-72
2021/12/13 04:59:10;;;;;;;21.23;13.38;;;9.00;99.90;;;;;;5011698;28;20392;-73
2021/12/13 05:01:37;;;;;;;20.73;13.60;;;9.00;99.90;;;;;;5031645;28;20395;-73
2021/12/13 05:04:05;;;;;;;20.65;13.40;;;9.00;99.90;;;;;;5031977;28;20498;-72
2021/12/13 05:06:35;;;;;;;22.73;13.10;;;9.00;99.90;;;;;;5021905;28;20385;-74
2021/12/13 05:09:11;;;;;;;19.40;12.50;;;9.00;99.90;;;;;;5010795;28;20387;-73
2021/12/13 05:11:53;;;;;;;20.47;12.30;;;9.10;99.90;;;;;;4993426;28;20965;-74
2021/12/13 05:14:39;;;;;;;23.73;13.20;;;9.00;99.90;;;;;;5003457;28;20969;-74
2021/12/13 05:17:14;;;;;;;20.88;12.95;;;9.00;99.90;;;;;;5028581;28;20865;-74
2021/12/13 05:20:06;;;;;;;21.70;12.55;;;9.10;99.90;;;;;;5030631;28;20441;-73
2021/12/13 05:22:37;;;;;;;21.92;11.98;;;9.20;99.90;;;;;;5021057;28;20395;-73
2021/12/13 05:25:04;;;;;;;18.90;10.75;;;9.30;99.90;;;;;;5025801;28;20946;-73
2021/12/13 05:27:40;;;;;;;20.85;11.90;;;9.30;99.90;;;;;;5028345;28;20524;-73
2021/12/13 05:30:13;;;;;;;18.20;12.80;;;9.20;99.90;;;;;;5028821;28;20380;-73
2021/12/13 05:32:44;;;;;;;22.48;13.23;;;9.10;99.90;;;;;;5029329;28;20779;-73
2021/12/13 05:35:21;;;;;;;16.08;11.38;;;9.10;99.90;;;;;;5029963;28;20383;-74
2021/12/13 05:37:57;;;;;;;17.90;11.18;;;9.20;99.90;;;;;;5030097;28;20399;-73
2021/12/13 05:40:31;;;;;;;22.63;12.20;;;9.20;99.90;;;;;;5015118;28;20427;-73
2021/12/13 05:43:00;;;;;;;19.67;12.00;;;9.20;99.90;;;;;;5027405;28;20448;-74
2021/12/13 05:45:36;;;;;;;18.17;11.13;;;9.20;99.90;;;;;;5034439;28;20716;-73
2021/12/13 05:48:06;;;;;;;17.77;11.68;;;9.20;99.90;;;;;;5029655;28;20399;-73
2021/12/13 05:50:38;;;;;;;20.23;12.25;;;9.20;99.90;;;;;;5031624;28;20410;-74
2021/12/13 05:53:18;;;;;;;20.13;11.50;;;9.10;99.90;;;;;;5021188;28;20384;-74
2021/12/13 05:56:01;;;;;;;19.17;11.23;;;9.10;99.90;;;;;;5017820;28;20730;-74
2021/12/13 05:58:45;;;;;;;18.77;11.45;;;9.10;99.90;;;;;;5034336;28;20376;-74
2021/12/13 06:01:16;;;;;;;17.73;11.82;;;9.10;99.90;;;;;;5014224;28;20932;-71
2021/12/13 06:03:52;;;;;;;21.42;12.20;;;9.00;99.90;;;;;;5014619;28;20413;-73
2021/12/13 06:06:24;;;;;;;20.67;12.13;;;9.00;99.90;;;;;;5019326;28;20402;-74
2021/12/13 06:08:53;;;;;;;18.97;12.40;;;8.90;99.90;;;;;;5025433;28;20387;-72
2021/12/13 06:11:32;;;;;;;20.45;12.30;;;9.00;99.90;;;;;;5034726;28;20411;-74
2021/12/13 06:14:15;;;;;;;20.33;11.85;;;8.90;99.90;;;;;;5035316;28;20415;-74
2021/12/13 06:17:01;;;;;;;16.52;11.60;;;8.90;99.90;;;;;;5026328;28;20422;-72
2021/12/13 06:19:55;;;;;;;22.50;11.80;;;8.90;99.90;;;;;;5015943;28;20391;-74
2021/12/13 06:22:23;;;;;;;17.85;10.60;;;8.90;99.90;;;;;;5007649;28;20397;-73
2021/12/13 06:24:53;;;;;;;16.27;11.60;;;9.10;99.90;;;;;;5025869;28;20469;-76
2021/12/13 06:27:22;;;;;;;17.40;11.50;;;9.00;99.90;;;;;;5032768;28;20410;-73
2021/12/13 06:30:21;;;;;;;17.38;12.05;;;9.10;99.90;;;;;;5033204;28;20395;-72
2021/12/13 06:32:57;;;;;;;16.75;9.88;;;9.00;99.90;;;;;;5032879;28;20367;-73
2021/12/13 06:35:41;;;;;;;15.77;10.83;;;9.10;99.90;;;;;;5033600;28;20450;-73
2021/12/13 06:38:19;;;;;;;16.98;10.60;;;9.20;99.90;;;;;;5025518;28;20958;-73
2021/12/13 06:41:17;;;;;;;19.42;11.20;;;9.00;99.90;;;;;;5044311;28;20401;-73
2021/12/13 06:43:53;;;;;;;14.20;9.60;;;9.00;99.90;;;;;;5056244;28;20381;-73
2021/12/13 06:46:22;;;;;;;20.67;12.15;;;9.00;99.90;;;;;;5051872;28;20382;-73
2021/12/13 06:49:07;;;;;;;16.83;11.25;;;9.00;99.90;;;;;;5026458;28;20466;-73
2021/12/13 06:51:45;;;;;;;16.83;10.80;;;8.90;99.90;;;;;;5032041;28;20940;-73
2021/12/13 06:54:25;;;;;;;14.90;10.10;;;9.10;99.90;;;;;;5032580;28;20737;-73
2021/12/13 06:57:02;;;;;;;18.30;10.82;;;9.10;99.90;;;;;;5032490;28;20433;-73
2021/12/13 06:59:30;;;;;;;183.80;85.05;;;9.10;99.90;;;;;;5024129;28;20484;-73
2021/12/13 07:02:03;;;;;;;115.43;53.13;;;9.50;99.90;;;;;;5012975;28;20391;-72
2021/12/13 07:04:48;;;;;;;33.88;18.52;;;9.20;99.90;;;;;;5013462;28;20438;-73
2021/12/13 07:07:15;;;;;;;17.90;10.87;;;9.10;99.90;;;;;;5005776;28;20486;-73
2021/12/13 07:09:50;;;;;;;17.45;10.40;;;9.00;99.90;;;;;;5031891;28;20466;-73
2021/12/13 07:12:17;;;;;;;19.25;10.65;;;9.00;99.90;;;;;;5031574;28;20418;-72
2021/12/13 07:14:43;;;;;;;19.45;10.40;;;9.00;99.90;;;;;;5024042;28;20391;-72
2021/12/13 07:17:23;;;;;;;18.50;10.48;;;8.90;99.90;;;;;;5014307;28;20555;-72
2021/12/13 07:19:51;;;;;;;20.90;11.18;;;8.90;99.90;;;;;;5012417;28;20377;-72
2021/12/13 07:22:26;;;;;;;16.60;10.77;;;8.90;99.90;;;;;;5019516;28;20760;-73
2021/12/13 07:25:14;;;;;;;18.25;10.65;;;8.90;99.90;;;;;;5030970;28;20395;-73
2021/12/13 07:27:47;;;;;;;14.60;10.57;;;9.00;99.90;;;;;;5024408;28;20399;-73
2021/12/13 07:30:15;;;;;;;16.20;9.90;;;8.90;99.90;;;;;;5033687;28;20391;-73
2021/12/13 07:33:05;;;;;;;15.00;9.82;;;9.00;99.90;;;;;;5031959;28;20954;-73
2021/12/13 07:35:48;;;;;;;15.25;9.50;;;8.90;99.90;;;;;;5030087;28;20442;-72
2021/12/13 07:38:17;;;;;;;15.68;9.27;;;8.90;99.90;;;;;;5031279;28;20422;-72
2021/12/13 07:40:48;;;;;;;17.95;9.43;;;9.00;99.90;;;;;;5031834;28;20402;-71
2021/12/13 07:43:30;;;;;;;14.23;8.95;;;9.00;99.90;;;;;;5031806;28;20399;-72
2021/12/13 07:46:22;;;;;;;17.30;9.40;;;8.90;99.90;;;;;;5031277;28;20753;-72
2021/12/13 07:48:49;;;;;;;13.77;9.07;;;9.00;99.90;;;;;;5024606;28;20409;-72
2021/12/13 07:51:18;;;;;;;13.50;8.80;;;8.90;99.90;;;;;;5028310;28;20415;-73
2021/12/13 07:53:51;;;;;;;16.15;8.88;;;8.90;99.90;;;;;;5021245;28;20403;-71
2021/12/13 07:56:42;;;;;;;16.13;9.73;;;9.00;99.90;;;;;;5028792;28;20406;-72
2021/12/13 07:59:13;;;;;;;14.45;9.25;;;8.90;99.90;;;;;;5008302;28;21013;-72
2021/12/13 08:01:49;;;;;;;12.40;8.38;;;8.90;99.90;;;;;;5028001;28;20417;-72
2021/12/13 08:04:45;;;;;;;14.60;8.77;;;9.00;99.90;;;;;;5029592;28;20419;-72
2021/12/13 08:07:20;;;;;;;14.00;9.18;;;9.00;99.90;;;;;;5024930;28;20403;-72
2021/12/13 08:09:52;;;;;;;14.77;8.93;;;9.00;99.90;;;;;;5031441;28;20417;-72
2021/12/13 08:12:34;;;;;;;13.73;8.98;;;9.00;99.90;;;;;;5029635;28;20450;-73
2021/12/13 08:15:26;;;;;;;11.80;8.85;;;8.90;99.90;;;;;;5025338;28;20426;-74
2021/12/13 08:17:53;;;;;;;14.23;8.85;;;8.80;99.90;;;;;;5031002;28;20387;-74
2021/12/13 08:20:45;;;;;;;14.57;8.75;;;9.10;99.90;;;;;;5030710;28;20393;-74
2021/12/13 08:23:33;;;;;;;14.90;9.85;;;9.00;99.90;;;;;;5015778;28;20400;-75
2021/12/13 08:26:01;;;;;;;13.88;9.60;;;9.00;99.90;;;;;;5024363;28;20405;-74
2021/12/13 08:28:55;;;;;;;13.57;8.98;;;9.00;99.90;;;;;;5021030;28;20403;-73
2021/12/13 08:31:28;;;;;;;15.57;8.70;;;9.00;99.90;;;;;;5028944;28;20414;-74
2021/12/13 08:34:01;;;;;;;15.35;9.40;;;9.10;99.90;;;;;;5024657;28;20427;-73
2021/12/13 08:36:34;;;;;;;13.43;8.73;;;9.10;99.90;;;;;;5020438;28;20388;-76
2021/12/13 08:39:09;;;;;;;14.35;9.23;;;9.10;99.90;;;;;;5015229;28;20778;-73
2021/12/13 08:41:51;;;;;;;12.98;8.88;;;9.10;99.90;;;;;;5012826;28;20406;-73
2021/12/13 08:44:20;;;;;;;15.43;9.70;;;9.10;99.90;;;;;;5026841;28;20477;-74
2021/12/13 08:46:52;;;;;;;15.57;9.93;;;9.10;99.90;;;;;;5035148;28;20406;-75
2021/12/13 08:49:29;;;;;;;14.98;8.85;;;9.10;99.90;;;;;;5040120;28;20453;-73
2021/12/13 08:52:07;;;;;;;11.82;8.50;;;9.10;99.90;;;;;;5042863;28;20434;-74
2021/12/13 08:54:55;;;;;;;13.27;8.07;;;9.00;99.90;;;;;;5018441;28;20416;-74
2021/12/13 08:57:45;;;;;;;15.50;8.90;;;9.10;99.90;;;;;;5011609;28;20438;-73
2021/12/13 09:00:14;;;;;;;12.95;8.30;;;9.00;99.90;;;;;;5028915;28;20393;-73
2021/12/13 09:02:47;;;;;;;10.93;8.60;;;9.10;99.90;;;;;;5034785;28;20393;-74
2021/12/13 09:05:21;;;;;;;12.00;8.18;;;9.10;99.90;;;;;;5051475;28;20804;-74
2021/12/13 09:08:13;;;;;;;13.95;8.30;;;9.10;99.90;;;;;;5030828;28;20402;-77
2021/12/13 09:10:39;;;;;;;16.38;8.10;;;9.10;99.90;;;;;;5029479;28;20415;-75
2021/12/13 09:13:04;;;;;;;13.27;8.27;;;9.20;99.90;;;;;;5035837;28;20832;-75
2021/12/13 09:15:34;;;;;;;14.25;8.45;;;9.20;99.90;;;;;;5027368;28;20401;-72
2021/12/13 09:18:00;;;;;;;15.30;9.00;;;9.30;99.90;;;;;;5029116;28;20482;-76
2021/12/13 09:20:34;;;;;;;11.88;8.10;;;9.20;99.90;;;;;;5026098;28;20823;-75
2021/12/13 09:23:17;;;;;;;13.48;8.65;;;9.20;99.90;;;;;;5018784;28;20739;-74
2021/12/13 09:26:02;;;;;;;15.00;9.27;;;9.30;99.90;;;;;;5027316;28;20435;-72
2021/12/13 09:28:53;;;;;;;12.77;8.60;;;9.40;99.90;;;;;;5024852;28;20414;-74
2021/12/13 09:31:22;;;;;;;11.35;7.85;;;9.30;99.90;;;;;;5014929;28;20405;-74
2021/12/13 09:33:56;;;;;;;13.32;8.82;;;9.40;99.90;;;;;;5018036;28;20465;-74
2021/12/13 09:36:26;;;;;;;18.05;9.02;;;9.50;99.90;;;;;;5028218;28;20423;-73
2021/12/13 09:39:12;;;;;;;18.57;9.30;;;9.40;99.90;;;;;;5027374;28;20548;-74
2021/12/13 09:41:42;;;;;;;13.90;8.90;;;9.40;99.90;;;;;;5021722;28;20400;-74
2021/12/13 09:44:08;;;;;;;16.85;8.50;;;9.40;99.90;;;;;;5029988;28;20398;-75
2021/12/13 09:46:48;;;;;;;13.73;8.80;;;9.50;99.90;;;;;;5023386;28;20408;-74
2021/12/13 09:49:32;;;;;;;13.75;8.10;;;9.60;99.90;;;;;;5020971;28;20410;-74
2021/12/13 09:52:09;;;;;;;14.63;8.70;;;9.50;99.90;;;;;;5021467;28;20409;-74
2021/12/13 09:54:53;;;;;;;13.57;8.45;;;9.50;99.90;;;;;;5024794;28;20446;-73
2021/12/13 09:57:24;;;;;;;11.50;7.25;;;9.50;99.90;;;;;;5022224;28;20434;-74
2021/12/13 09:59:52;;;;;;;16.15;8.02;;;9.70;99.90;;;;;;5028176;28;20418;-74
2021/12/13 10:02:31;;;;;;;12.00;7.78;;;9.60;99.90;;;;;;5027567;28;20490;-75
2021/12/13 10:04:58;;;;;;;11.38;7.60;;;9.60;99.90;;;;;;5025518;28;20467;-74
2021/12/13 10:07:36;;;;;;;12.30;7.50;;;9.60;99.90;;;;;;5029705;28;20446;-74
2021/12/13 10:10:15;;;;;;;11.05;7.90;;;9.70;99.90;;;;;;5021019;28;20408;-74
2021/12/13 10:12:48;;;;;;;17.95;7.72;;;9.80;99.70;;;;;;5006441;28;20395;-74
2021/12/13 10:15:30;;;;;;;12.88;7.10;;;9.80;98.40;;;;;;5023682;28;20987;-74
2021/12/13 10:18:00;;;;;;;13.10;7.97;;;9.90;97.20;;;;;;5001146;28;20399;-76
2021/12/13 10:20:36;;;;;;;11.75;7.40;;;9.80;96.60;;;;;;5004965;28;20393;-75
2021/12/13 10:23:06;;;;;;;9.93;6.47;;;9.90;98.90;;;;;;5026142;28;20459;-74
2021/12/13 10:25:35;;;;;;;12.85;7.60;;;9.90;96.60;;;;;;5039882;28;20814;-76
2021/12/13 10:28:03;;;;;;;12.43;8.02;;;9.90;97.60;;;;;;5030435;28;20761;-74
2021/12/13 10:30:37;;;;;;;15.32;7.18;;;10.10;97.00;;;;;;5037993;28;20582;-79
2021/12/13 10:33:05;;;;;;;11.02;6.82;;;10.20;92.80;;;;;;5001512;28;20468;-76
2021/12/13 10:35:40;;;;;;;16.33;7.07;;;10.10;92.80;;;;;;5026214;28;20793;-75
2021/12/13 10:38:13;;;;;;;12.70;6.80;;;10.00;93.00;;;;;;5034801;28;20433;-78
2021/12/13 10:40:47;;;;;;;10.93;6.90;;;10.30;92.70;;;;;;5025504;28;20428;-75
2021/12/13 10:43:15;;;;;;;11.65;7.40;;;10.20;92.00;;;;;;5027373;28;20403;-77
2021/12/13 10:45:46;;;;;;;12.90;6.90;;;10.30;91.90;;;;;;5035036;28;20479;-75
2021/12/13 10:48:15;;;;;;;16.75;7.38;;;10.40;91.10;;;;;;5030717;28;20418;-74
2021/12/13 10:50:49;;;;;;;12.73;7.40;;;10.40;90.30;;;;;;5034735;28;20395;-74
2021/12/13 10:53:18;;;;;;;18.27;6.65;;;10.50;91.90;;;;;;5026518;28;20423;-78
2021/12/13 10:56:01;;;;;;;10.88;7.00;;;10.70;84.90;;;;;;5040666;28;20489;-78
2021/12/13 10:58:32;;;;;;;13.90;7.25;;;10.80;84.20;;;;;;5012210;28;20486;-75
2021/12/13 11:01:17;;;;;;;11.68;6.55;;;10.70;84.20;;;;;;5027871;28;20403;-75
2021/12/13 11:03:43;;;;;;;15.48;8.05;;;10.60;86.10;;;;;;5027958;28;20423;-75
2021/12/13 11:06:10;;;;;;;13.77;7.20;;;10.60;88.10;;;;;;5029691;28;20713;-76
2021/12/13 11:08:41;;;;;;;10.13;7.10;;;10.60;89.80;;;;;;5014935;28;20418;-75
2021/12/13 11:11:17;;;;;;;14.82;6.10;;;10.60;89.20;;;;;;5042102;28;20526;-76
2021/12/13 11:13:44;;;;;;;21.77;11.27;;;10.70;87.80;;;;;;5028669;28;20933;-76
2021/12/13 11:16:23;;;;;;;10.32;6.85;;;10.80;80.00;;;;;;5023353;28;20399;-76
2021/12/13 11:18:50;;;;;;;11.05;5.10;;;10.90;76.00;;;;;;5005303;28;20395;-76
2021/12/13 11:21:36;;;;;;;7.60;5.10;;;11.10;71.40;;;;;;5013987;28;20605;-76
2021/12/13 11:24:04;;;;;;;9.95;5.57;;;11.20;68.10;;;;;;5020787;28;20482;-77
2021/12/13 11:26:36;;;;;;;8.07;5.22;;;11.10;70.00;;;;;;5009785;28;20406;-75
2021/12/13 11:29:04;;;;;;;8.13;5.32;;;11.10;70.40;;;;;;5007929;28;20399;-75
2021/12/13 11:31:29;;;;;;;7.05;5.10;;;11.20;67.80;;;;;;5033065;28;20926;-75
2021/12/13 11:34:01;;;;;;;7.35;4.88;;;11.30;67.40;;;;;;5032985;28;20399;-75
2021/12/13 11:36:49;;;;;;;9.27;5.53;;;11.30;66.70;;;;;;5014559;28;20514;-76
2021/12/13 11:39:44;;;;;;;6.30;5.25;;;11.30;63.90;;;;;;5029407;28;20752;-76
2021/12/13 11:42:38;;;;;;;8.68;5.30;;;11.40;62.00;;;;;;5045305;28;20421;-76
2021/12/13 11:45:31;;;;;;;7.00;4.90;;;11.60;59.70;;;;;;5022467;28;20399;-75
2021/12/13 11:48:16;;;;;;;7.10;5.03;;;11.70;58.60;;;;;;5012798;28;20398;-76
2021/12/13 11:51:39;;;;;;;6.53;4.57;;;11.70;57.90;;;;;;5031789;28;20490;-76
2021/12/13 11:54:34;;;;;;;8.73;4.78;;;11.60;58.30;;;;;;4988072;28;20408;-76
2021/12/13 11:57:34;;;;;;;13.68;6.53;;;11.70;57.00;;;;;;5032584;28;20445;-76
2021/12/13 12:00:28;;;;;;;8.40;5.13;;;11.50;57.60;;;;;;5019181;28;20938;-72
2021/12/13 12:03:25;;;;;;;11.40;4.90;;;11.50;59.60;;;;;;5030118;28;20465;-72
2021/12/13 12:06:28;;;;;;;9.50;4.88;;;11.50;58.40;;;;;;5033612;28;20403;-75
2021/12/13 12:09:27;;;;;;;6.00;4.30;;;11.60;56.30;;;;;;5031380;28;20431;-76
2021/12/13 12:12:19;;;;;;;8.23;4.15;;;11.70;55.30;;;;;;5037783;23;20524;-73
2021/12/13 12:14:48;;;;;;;7.45;4.10;;;11.70;54.90;;;;;;5043358;28;20406;-75
2021/12/13 12:17:14;;;;;;;5.93;4.10;;;11.80;53.20;;;;;;5033279;28;20387;-77
2021/12/13 12:19:41;;;;;;;9.82;4.53;;;11.80;53.30;;;;;;5049640;28;20417;-76
2021/12/13 12:22:16;;;;;;;5.70;4.13;;;11.90;54.20;;;;;;5040038;28;20808;-75
2021/12/13 12:24:46;;;;;;;7.80;3.70;;;11.90;54.00;;;;;;5031784;28;20474;-75
2021/12/13 12:27:22;;;;;;;6.70;3.42;;;11.90;52.70;;;;;;5031001;28;20701;-75
2021/12/13 12:29:52;;;;;;;3.95;2.97;;;11.90;52.90;;;;;;5031413;28;20391;-75
2021/12/13 12:32:26;;;;;;;4.88;3.28;;;12.10;49.30;;;;;;5031266;28;20411;-73
2021/12/13 12:34:57;;;;;;;4.68;3.17;;;12.20;50.10;;;;;;5031177;28;20910;-75
2021/12/13 12:37:25;;;;;;;9.10;2.78;;;12.20;48.70;;;;;;5031558;28;20398;-75
2021/12/13 12:40:22;;;;;;;10.90;2.65;;;12.30;46.90;;;;;;5031288;28;20912;-74
2021/12/13 12:42:52;;;;;;;4.22;1.40;;;12.30;47.00;;;;;;5028432;28;20407;-74
2021/12/13 12:45:39;;;;;;;4.90;1.83;;;12.20;44.20;;;;;;5031580;28;20435;-75
2021/12/13 12:48:32;;;;;;;7.10;1.70;;;12.10;45.00;;;;;;5030062;28;20428;-75
2021/12/13 12:51:16;;;;;;;5.20;1.95;;;12.00;44.70;;;;;;5024224;28;20508;-74
2021/12/13 12:54:04;;;;;;;6.95;1.65;;;12.00;44.20;;;;;;5030329;28;20395;-74
2021/12/13 12:56:36;;;;;;;5.20;1.70;;;12.10;42.90;;;;;;5030928;28;20802;-75
2021/12/13 12:59:09;;;;;;;2.88;1.90;;;12.00;43.10;;;;;;5031268;28;20378;-75
2021/12/13 13:01:46;;;;;;;2.85;1.80;;;11.70;44.10;;;;;;5030486;28;20387;-75
2021/12/13 13:04:43;;;;;;;4.95;2.05;;;11.80;43.20;;;;;;5030931;28;20688;-75
2021/12/13 13:07:16;;;;;;;5.00;2.00;;;11.70;44.00;;;;;;5030146;28;20391;-74
2021/12/13 13:09:59;;;;;;;7.60;2.15;;;11.80;43.40;;;;;;5030898;28;20729;-77
2021/12/13 13:12:32;;;;;;;4.30;1.65;;;11.80;43.80;;;;;;5029143;28;20506;-75
2021/12/13 13:15:03;;;;;;;3.00;1.90;;;11.70;43.70;;;;;;5030037;28;20425;-74
2021/12/13 13:17:32;;;;;;;3.42;2.03;;;11.60;43.90;;;;;;5024856;28;20803;-75
2021/12/13 13:20:07;;;;;;;5.47;1.83;;;11.60;44.90;;;;;;5030735;28;20399;-74
2021/12/13 13:22:37;;;;;;;5.35;2.05;;;11.60;44.30;;;;;;5028568;28;20913;-75
2021/12/13 13:25:15;;;;;;;4.60;1.70;;;11.80;43.90;;;;;;5030594;28;20792;-74
2021/12/13 13:27:40;;;;;;;5.40;1.90;;;11.90;41.70;;;;;;5030387;28;20434;-75
2021/12/13 13:30:18;;;;;;;6.50;2.37;;;11.90;42.40;;;;;;5030689;28;20434;-75
2021/12/13 13:32:44;;;;;;;4.70;1.90;;;11.90;42.00;;;;;;5030869;28;20395;-75
2021/12/13 13:35:12;;;;;;;11.47;2.97;;;12.00;42.10;;;;;;5031247;28;20829;-75